sensor_id;sensor_type;location;lat;lon;timestamp;pressure;altitude;pressure_sealevel;temperature;humidity
82807;BME280;72563;44.816;20.484;2023-11-22T00:00:12;99898.97;;;10.78;83.20
82807;BME280;72563;44.816;20.484;2023-11-22T00:02:38;99923.69;;;10.95;83.03
82807;BME280;72563;44.816;20.484;2023-11-22T00:05:04;99918.31;;;10.99;82.68
82807;BME280;72563;44.816;20.484;2023-11-22T00:07:31;99908.63;;;10.93;82.81
82807;BME280;72563;44.816;20.484;2023-11-22T00:09:58;99918.47;;;10.94;82.72
82807;BME280;72563;44.816;20.484;2023-11-22T00:12:24;99920.38;;;11.02;82.63
82807;BME280;72563;44.816;20.484;2023-11-22T00:14:51;99940.69;;;10.97;83.08
82807;BME280;72563;44.816;20.484;2023-11-22T00:17:19;99940.50;;;10.94;83.41
82807;BME280;72563;44.816;20.484;2023-11-22T00:19:44;99938.41;;;10.99;82.98
82807;BME280;72563;44.816;20.484;2023-11-22T00:22:11;99938.56;;;10.94;83.00
82807;BME280;72563;44.816;20.484;2023-11-22T00:24:40;99935.81;;;10.94;83.37
82807;BME280;72563;44.816;20.484;2023-11-22T00:27:06;99940.97;;;11.04;82.43
82807;BME280;72563;44.816;20.484;2023-11-22T00:29:32;99939.41;;;10.95;83.11
82807;BME280;72563;44.816;20.484;2023-11-22T00:31:59;99944.59;;;10.88;83.23
82807;BME280;72563;44.816;20.484;2023-11-22T00:34:25;99943.84;;;10.78;83.87
82807;BME280;72563;44.816;20.484;2023-11-22T00:36:51;99927.47;;;10.73;83.62
82807;BME280;72563;44.816;20.484;2023-11-22T00:39:17;99949.91;;;11.01;82.85
82807;BME280;72563;44.816;20.484;2023-11-22T00:41:43;99936.81;;;10.90;83.06
82807;BME280;72563;44.816;20.484;2023-11-22T00:44:09;99948.59;;;10.99;82.92
82807;BME280;72563;44.816;20.484;2023-11-22T00:46:35;99952.44;;;11.06;82.77
82807;BME280;72563;44.816;20.484;2023-11-22T00:49:03;99953.63;;;10.97;83.24
82807;BME280;72563;44.816;20.484;2023-11-22T00:51:30;99960.81;;;10.89;83.14
82807;BME280;72563;44.816;20.484;2023-11-22T00:53:57;99952.78;;;11.05;82.93
82807;BME280;72563;44.816;20.484;2023-11-22T00:56:22;99943.50;;;10.80;83.10
82807;BME280;72563;44.816;20.484;2023-11-22T00:58:49;99958.25;;;10.75;83.84
82807;BME280;72563;44.816;20.484;2023-11-22T01:01:16;99959.53;;;10.78;83.94
82807;BME280;72563;44.816;20.484;2023-11-22T01:03:43;99933.81;;;10.65;83.84
82807;BME280;72563;44.816;20.484;2023-11-22T01:06:09;99960.69;;;10.77;84.03
82807;BME280;72563;44.816;20.484;2023-11-22T01:08:35;99956.47;;;10.71;83.97
82807;BME280;72563;44.816;20.484;2023-11-22T01:11:01;99954.84;;;10.78;83.32
82807;BME280;72563;44.816;20.484;2023-11-22T01:13:29;99958.72;;;10.77;83.38
82807;BME280;72563;44.816;20.484;2023-11-22T01:15:55;99962.28;;;10.78;83.17
82807;BME280;72563;44.816;20.484;2023-11-22T01:18:21;99960.34;;;10.78;83.30
82807;BME280;72563;44.816;20.484;2023-11-22T01:20:46;99962.44;;;10.73;83.39
82807;BME280;72563;44.816;20.484;2023-11-22T01:23:12;99964.03;;;10.91;82.42
82807;BME280;72563;44.816;20.484;2023-11-22T01:25:39;99958.56;;;10.82;82.97
82807;BME280;72563;44.816;20.484;2023-11-22T01:28:05;99962.16;;;10.66;82.77
82807;BME280;72563;44.816;20.484;2023-11-22T01:30:32;99940.25;;;10.15;84.20
82807;BME280;72563;44.816;20.484;2023-11-22T01:32:59;99975.31;;;10.35;84.95
82807;BME280;72563;44.816;20.484;2023-11-22T01:35:24;99968.00;;;10.56;84.38
82807;BME280;72563;44.816;20.484;2023-11-22T01:37:50;99963.13;;;10.61;83.96
82807;BME280;72563;44.816;20.484;2023-11-22T01:40:16;99958.59;;;10.57;84.09
82807;BME280;72563;44.816;20.484;2023-11-22T01:42:42;99968.28;;;10.71;83.44
82807;BME280;72563;44.816;20.484;2023-11-22T01:45:08;99962.16;;;10.74;83.58
82807;BME280;72563;44.816;20.484;2023-11-22T01:47:36;99957.25;;;10.80;83.04
82807;BME280;72563;44.816;20.484;2023-11-22T01:50:04;99961.50;;;10.69;83.21
82807;BME280;72563;44.816;20.484;2023-11-22T01:52:31;99962.63;;;10.68;83.49
82807;BME280;72563;44.816;20.484;2023-11-22T01:54:58;99961.81;;;10.76;83.33
82807;BME280;72563;44.816;20.484;2023-11-22T01:57:23;99966.38;;;10.55;84.08
82807;BME280;72563;44.816;20.484;2023-11-22T01:59:49;99963.63;;;10.55;84.33
82807;BME280;72563;44.816;20.484;2023-11-22T02:02:14;99954.63;;;10.20;84.65
82807;BME280;72563;44.816;20.484;2023-11-22T02:04:40;99974.00;;;10.58;83.61
82807;BME280;72563;44.816;20.484;2023-11-22T02:07:05;99973.72;;;10.42;84.72
82807;BME280;72563;44.816;20.484;2023-11-22T02:09:31;99965.25;;;10.64;83.40
82807;BME280;72563;44.816;20.484;2023-11-22T02:11:57;99973.03;;;10.54;84.07
82807;BME280;72563;44.816;20.484;2023-11-22T02:14:23;99967.38;;;10.50;84.29
82807;BME280;72563;44.816;20.484;2023-11-22T02:16:50;99975.47;;;10.47;84.70
82807;BME280;72563;44.816;20.484;2023-11-22T02:19:17;99964.66;;;10.08;85.71
82807;BME280;72563;44.816;20.484;2023-11-22T02:21:43;99974.34;;;10.48;84.61
82807;BME280;72563;44.816;20.484;2023-11-22T02:24:10;99974.22;;;10.19;85.83
82807;BME280;72563;44.816;20.484;2023-11-22T02:26:35;99975.03;;;10.11;86.43
82807;BME280;72563;44.816;20.484;2023-11-22T02:29:02;99966.13;;;10.14;86.17
82807;BME280;72563;44.816;20.484;2023-11-22T02:31:29;99966.41;;;9.86;86.82
82807;BME280;72563;44.816;20.484;2023-11-22T02:33:55;99971.88;;;9.69;87.79
82807;BME280;72563;44.816;20.484;2023-11-22T02:36:21;99982.75;;;9.83;87.31
82807;BME280;72563;44.816;20.484;2023-11-22T02:38:48;99966.44;;;10.03;86.65
82807;BME280;72563;44.816;20.484;2023-11-22T02:41:14;99977.09;;;10.22;85.91
82807;BME280;72563;44.816;20.484;2023-11-22T02:43:39;99970.63;;;10.35;85.36
82807;BME280;72563;44.816;20.484;2023-11-22T02:46:07;99968.19;;;9.74;87.76
82807;BME280;72563;44.816;20.484;2023-11-22T02:48:33;99976.75;;;9.98;87.35
82807;BME280;72563;44.816;20.484;2023-11-22T02:50:59;99989.22;;;10.04;87.22
82807;BME280;72563;44.816;20.484;2023-11-22T02:53:25;99981.28;;;9.94;87.66
82807;BME280;72563;44.816;20.484;2023-11-22T02:55:50;99988.78;;;10.36;85.82
82807;BME280;72563;44.816;20.484;2023-11-22T02:58:16;99983.28;;;10.11;86.52
82807;BME280;72563;44.816;20.484;2023-11-22T03:00:42;99982.91;;;9.86;87.28
82807;BME280;72563;44.816;20.484;2023-11-22T03:03:07;99980.31;;;9.73;88.60
82807;BME280;72563;44.816;20.484;2023-11-22T03:05:38;99979.06;;;10.22;86.51
82807;BME280;72563;44.816;20.484;2023-11-22T03:08:04;99982.63;;;10.14;86.39
82807;BME280;72563;44.816;20.484;2023-11-22T03:10:30;99993.94;;;10.38;85.60
82807;BME280;72563;44.816;20.484;2023-11-22T03:12:57;99985.50;;;10.09;86.91
82807;BME280;72563;44.816;20.484;2023-11-22T03:15:22;99975.84;;;10.20;86.19
82807;BME280;72563;44.816;20.484;2023-11-22T03:17:47;99994.44;;;10.40;85.44
82807;BME280;72563;44.816;20.484;2023-11-22T03:20:14;99995.88;;;10.37;85.28
82807;BME280;72563;44.816;20.484;2023-11-22T03:22:41;99998.44;;;10.59;84.41
82807;BME280;72563;44.816;20.484;2023-11-22T03:25:09;99968.19;;;10.51;83.71
82807;BME280;72563;44.816;20.484;2023-11-22T03:27:36;99974.69;;;10.46;84.02
82807;BME280;72563;44.816;20.484;2023-11-22T03:30:01;100000.56;;;10.54;83.59
82807;BME280;72563;44.816;20.484;2023-11-22T03:32:27;100004.63;;;10.48;84.46
82807;BME280;72563;44.816;20.484;2023-11-22T03:34:55;100006.88;;;10.46;83.65
82807;BME280;72563;44.816;20.484;2023-11-22T03:37:23;99997.50;;;10.21;84.03
82807;BME280;72563;44.816;20.484;2023-11-22T03:39:49;100011.91;;;10.27;84.08
82807;BME280;72563;44.816;20.484;2023-11-22T03:42:15;100017.88;;;10.37;83.46
82807;BME280;72563;44.816;20.484;2023-11-22T03:44:44;100016.44;;;10.40;83.05
82807;BME280;72563;44.816;20.484;2023-11-22T03:47:15;100022.41;;;10.33;83.07
82807;BME280;72563;44.816;20.484;2023-11-22T03:49:40;100027.91;;;10.25;83.58
82807;BME280;72563;44.816;20.484;2023-11-22T03:52:06;100037.09;;;9.94;84.54
82807;BME280;72563;44.816;20.484;2023-11-22T03:54:33;100028.56;;;10.13;84.06
82807;BME280;72563;44.816;20.484;2023-11-22T03:56:59;100029.69;;;10.03;84.30
82807;BME280;72563;44.816;20.484;2023-11-22T03:59:24;100025.94;;;9.99;84.10
82807;BME280;72563;44.816;20.484;2023-11-22T04:01:50;100031.81;;;10.15;83.01
82807;BME280;72563;44.816;20.484;2023-11-22T04:04:19;100035.69;;;10.14;83.20
82807;BME280;72563;44.816;20.484;2023-11-22T04:06:53;100049.75;;;10.13;83.18
82807;BME280;72563;44.816;20.484;2023-11-22T04:09:19;100039.41;;;10.18;82.97
82807;BME280;72563;44.816;20.484;2023-11-22T04:11:46;100029.34;;;9.96;82.98
82807;BME280;72563;44.816;20.484;2023-11-22T04:14:12;100049.44;;;10.31;82.54
82807;BME280;72563;44.816;20.484;2023-11-22T04:16:38;100054.59;;;10.07;83.14
82807;BME280;72563;44.816;20.484;2023-11-22T04:19:03;100049.28;;;10.19;82.66
82807;BME280;72563;44.816;20.484;2023-11-22T04:21:29;100054.31;;;10.26;82.66
82807;BME280;72563;44.816;20.484;2023-11-22T04:23:54;100063.19;;;10.23;82.70
82807;BME280;72563;44.816;20.484;2023-11-22T04:26:20;100054.13;;;10.22;82.26
82807;BME280;72563;44.816;20.484;2023-11-22T04:28:47;100054.47;;;10.29;82.24
82807;BME280;72563;44.816;20.484;2023-11-22T04:31:13;100062.56;;;10.26;81.79
82807;BME280;72563;44.816;20.484;2023-11-22T04:33:38;100059.97;;;10.38;81.82
82807;BME280;72563;44.816;20.484;2023-11-22T04:36:05;100038.63;;;10.18;82.01
82807;BME280;72563;44.816;20.484;2023-11-22T04:38:32;100062.06;;;10.15;82.29
82807;BME280;72563;44.816;20.484;2023-11-22T04:40:59;100080.16;;;10.08;83.04
82807;BME280;72563;44.816;20.484;2023-11-22T04:43:24;100071.28;;;10.11;83.08
82807;BME280;72563;44.816;20.484;2023-11-22T04:45:50;100079.88;;;10.18;82.89
82807;BME280;72563;44.816;20.484;2023-11-22T04:48:15;100082.06;;;9.98;83.41
82807;BME280;72563;44.816;20.484;2023-11-22T04:50:42;100087.78;;;10.11;83.08
82807;BME280;72563;44.816;20.484;2023-11-22T04:53:08;100089.41;;;10.29;82.88
82807;BME280;72563;44.816;20.484;2023-11-22T04:55:34;100094.69;;;10.08;82.69
82807;BME280;72563;44.816;20.484;2023-11-22T04:58:00;100098.09;;;10.05;82.92
82807;BME280;72563;44.816;20.484;2023-11-22T05:00:26;100089.59;;;10.32;82.09
82807;BME280;72563;44.816;20.484;2023-11-22T05:02:52;100108.16;;;9.62;84.90
82807;BME280;72563;44.816;20.484;2023-11-22T05:05:19;100105.50;;;9.87;84.02
82807;BME280;72563;44.816;20.484;2023-11-22T05:07:45;100102.03;;;10.21;82.62
82807;BME280;72563;44.816;20.484;2023-11-22T05:10:11;100115.44;;;10.14;82.71
82807;BME280;72563;44.816;20.484;2023-11-22T05:12:37;100108.31;;;10.13;83.01
82807;BME280;72563;44.816;20.484;2023-11-22T05:15:03;100110.59;;;10.11;83.26
82807;BME280;72563;44.816;20.484;2023-11-22T05:17:30;100117.59;;;10.34;82.31
82807;BME280;72563;44.816;20.484;2023-11-22T05:19:55;100116.91;;;10.12;82.80
82807;BME280;72563;44.816;20.484;2023-11-22T05:22:21;100114.34;;;10.24;81.99
82807;BME280;72563;44.816;20.484;2023-11-22T05:24:48;100130.16;;;10.18;82.33
82807;BME280;72563;44.816;20.484;2023-11-22T05:27:13;100140.06;;;10.28;81.91
82807;BME280;72563;44.816;20.484;2023-11-22T05:29:39;100141.44;;;10.08;82.43
82807;BME280;72563;44.816;20.484;2023-11-22T05:32:05;100145.88;;;10.18;81.98
82807;BME280;72563;44.816;20.484;2023-11-22T05:34:32;100146.75;;;9.96;81.96
82807;BME280;72563;44.816;20.484;2023-11-22T05:36:58;100138.31;;;9.92;81.90
82807;BME280;72563;44.816;20.484;2023-11-22T05:39:23;100140.69;;;10.16;81.71
82807;BME280;72563;44.816;20.484;2023-11-22T05:41:53;100148.56;;;10.09;81.56
82807;BME280;72563;44.816;20.484;2023-11-22T05:44:18;100128.59;;;9.47;83.03
82807;BME280;72563;44.816;20.484;2023-11-22T05:46:44;100154.00;;;9.92;82.05
82807;BME280;72563;44.816;20.484;2023-11-22T05:49:09;100155.25;;;9.77;82.43
82807;BME280;72563;44.816;20.484;2023-11-22T05:51:37;100158.91;;;10.03;81.27
82807;BME280;72563;44.816;20.484;2023-11-22T05:54:04;100162.44;;;9.95;81.55
82807;BME280;72563;44.816;20.484;2023-11-22T05:56:29;100167.72;;;9.83;82.17
82807;BME280;72563;44.816;20.484;2023-11-22T05:58:55;100165.31;;;9.90;81.75
82807;BME280;72563;44.816;20.484;2023-11-22T06:01:20;100167.06;;;10.17;80.79
82807;BME280;72563;44.816;20.484;2023-11-22T06:03:48;100165.78;;;9.84;82.04
82807;BME280;72563;44.816;20.484;2023-11-22T06:06:13;100168.66;;;9.70;82.87
82807;BME280;72563;44.816;20.484;2023-11-22T06:08:39;100178.91;;;9.87;82.63
82807;BME280;72563;44.816;20.484;2023-11-22T06:11:05;100180.50;;;9.88;82.56
82807;BME280;72563;44.816;20.484;2023-11-22T06:13:31;100186.47;;;9.81;83.07
82807;BME280;72563;44.816;20.484;2023-11-22T06:15:57;100199.47;;;9.89;82.25
82807;BME280;72563;44.816;20.484;2023-11-22T06:18:22;100199.34;;;10.03;81.94
82807;BME280;72563;44.816;20.484;2023-11-22T06:20:55;100203.53;;;10.00;81.76
82807;BME280;72563;44.816;20.484;2023-11-22T06:23:21;100190.25;;;9.94;82.19
82807;BME280;72563;44.816;20.484;2023-11-22T06:25:47;100210.47;;;9.98;82.01
82807;BME280;72563;44.816;20.484;2023-11-22T06:28:13;100221.09;;;9.82;82.60
82807;BME280;72563;44.816;20.484;2023-11-22T06:30:39;100231.03;;;10.00;81.86
82807;BME280;72563;44.816;20.484;2023-11-22T06:33:04;100236.19;;;10.02;81.08
82807;BME280;72563;44.816;20.484;2023-11-22T06:35:30;100231.81;;;9.92;81.58
82807;BME280;72563;44.816;20.484;2023-11-22T06:37:56;100246.69;;;9.91;81.58
82807;BME280;72563;44.816;20.484;2023-11-22T06:40:22;100240.16;;;9.79;81.94
82807;BME280;72563;44.816;20.484;2023-11-22T06:42:48;100249.94;;;9.93;81.38
82807;BME280;72563;44.816;20.484;2023-11-22T06:45:14;100252.19;;;9.91;81.12
82807;BME280;72563;44.816;20.484;2023-11-22T06:47:41;100231.38;;;9.68;81.88
82807;BME280;72563;44.816;20.484;2023-11-22T06:50:07;100261.72;;;9.94;81.49
82807;BME280;72563;44.816;20.484;2023-11-22T06:52:41;100255.00;;;10.09;80.09
82807;BME280;72563;44.816;20.484;2023-11-22T06:55:08;100259.44;;;9.87;80.57
82807;BME280;72563;44.816;20.484;2023-11-22T06:57:37;100258.31;;;9.88;80.75
82807;BME280;72563;44.816;20.484;2023-11-22T07:00:04;100244.38;;;9.85;80.82
82807;BME280;72563;44.816;20.484;2023-11-22T07:02:36;100275.28;;;9.90;80.95
82807;BME280;72563;44.816;20.484;2023-11-22T07:05:07;100274.47;;;9.90;80.99
82807;BME280;72563;44.816;20.484;2023-11-22T07:07:35;100274.97;;;9.92;81.44
82807;BME280;72563;44.816;20.484;2023-11-22T07:10:02;100275.06;;;9.78;81.33
82807;BME280;72563;44.816;20.484;2023-11-22T07:12:28;100271.69;;;9.81;81.29
82807;BME280;72563;44.816;20.484;2023-11-22T07:14:54;100266.81;;;9.78;80.55
82807;BME280;72563;44.816;20.484;2023-11-22T07:17:21;100285.75;;;9.80;81.41
82807;BME280;72563;44.816;20.484;2023-11-22T07:19:49;100288.78;;;10.00;81.24
82807;BME280;72563;44.816;20.484;2023-11-22T07:22:16;100281.06;;;9.80;81.78
82807;BME280;72563;44.816;20.484;2023-11-22T07:24:43;100285.47;;;9.90;81.82
82807;BME280;72563;44.816;20.484;2023-11-22T07:27:10;100295.72;;;9.98;81.12
82807;BME280;72563;44.816;20.484;2023-11-22T07:29:37;100296.69;;;9.93;81.76
82807;BME280;72563;44.816;20.484;2023-11-22T07:32:03;100280.78;;;9.90;80.53
82807;BME280;72563;44.816;20.484;2023-11-22T07:34:30;100279.75;;;9.78;80.71
82807;BME280;72563;44.816;20.484;2023-11-22T07:36:55;100299.22;;;9.90;80.47
82807;BME280;72563;44.816;20.484;2023-11-22T07:39:21;100287.16;;;9.69;81.08
82807;BME280;72563;44.816;20.484;2023-11-22T07:41:52;100297.13;;;9.87;81.09
82807;BME280;72563;44.816;20.484;2023-11-22T07:44:18;100291.13;;;9.85;81.21
82807;BME280;72563;44.816;20.484;2023-11-22T07:46:43;100306.13;;;9.79;81.71
82807;BME280;72563;44.816;20.484;2023-11-22T07:49:09;100318.91;;;9.83;81.47
82807;BME280;72563;44.816;20.484;2023-11-22T07:51:35;100314.16;;;9.75;81.21
82807;BME280;72563;44.816;20.484;2023-11-22T07:54:02;100308.72;;;9.84;81.13
82807;BME280;72563;44.816;20.484;2023-11-22T07:56:28;100315.75;;;9.68;81.90
82807;BME280;72563;44.816;20.484;2023-11-22T07:58:55;100316.63;;;9.77;82.24
82807;BME280;72563;44.816;20.484;2023-11-22T08:01:20;100317.78;;;9.84;82.27
82807;BME280;72563;44.816;20.484;2023-11-22T08:03:47;100319.16;;;9.95;81.92
82807;BME280;72563;44.816;20.484;2023-11-22T08:06:12;100320.97;;;9.78;82.35
82807;BME280;72563;44.816;20.484;2023-11-22T08:08:38;100322.34;;;9.89;82.10
82807;BME280;72563;44.816;20.484;2023-11-22T08:11:06;100326.97;;;9.80;82.22
82807;BME280;72563;44.816;20.484;2023-11-22T08:13:41;100331.28;;;9.94;81.75
82807;BME280;72563;44.816;20.484;2023-11-22T08:16:09;100339.69;;;9.98;82.04
82807;BME280;72563;44.816;20.484;2023-11-22T08:18:35;100341.06;;;10.09;81.11
82807;BME280;72563;44.816;20.484;2023-11-22T08:21:01;100342.28;;;9.94;81.70
82807;BME280;72563;44.816;20.484;2023-11-22T08:23:26;100342.78;;;9.96;81.58
82807;BME280;72563;44.816;20.484;2023-11-22T08:25:52;100346.09;;;9.85;81.82
82807;BME280;72563;44.816;20.484;2023-11-22T08:28:18;100348.03;;;9.84;81.96
82807;BME280;72563;44.816;20.484;2023-11-22T08:30:44;100352.41;;;10.08;81.12
82807;BME280;72563;44.816;20.484;2023-11-22T08:33:10;100361.66;;;9.89;81.83
82807;BME280;72563;44.816;20.484;2023-11-22T08:35:36;100365.22;;;9.90;82.40
82807;BME280;72563;44.816;20.484;2023-11-22T08:38:01;100367.03;;;9.94;82.03
82807;BME280;72563;44.816;20.484;2023-11-22T08:40:28;100366.91;;;9.99;81.70
82807;BME280;72563;44.816;20.484;2023-11-22T08:42:54;100373.78;;;10.11;80.82
82807;BME280;72563;44.816;20.484;2023-11-22T08:45:20;100352.59;;;9.89;81.55
82807;BME280;72563;44.816;20.484;2023-11-22T08:47:46;100370.69;;;9.90;82.17
82807;BME280;72563;44.816;20.484;2023-11-22T08:50:14;100358.66;;;9.99;81.32
82807;BME280;72563;44.816;20.484;2023-11-22T08:52:40;100384.78;;;10.11;81.28
82807;BME280;72563;44.816;20.484;2023-11-22T08:55:11;100384.19;;;10.00;81.75
82807;BME280;72563;44.816;20.484;2023-11-22T08:57:40;100388.66;;;10.10;81.30
82807;BME280;72563;44.816;20.484;2023-11-22T09:00:06;100392.00;;;10.07;81.38
82807;BME280;72563;44.816;20.484;2023-11-22T09:02:36;100376.03;;;9.86;81.63
82807;BME280;72563;44.816;20.484;2023-11-22T09:05:03;100398.94;;;9.82;82.07
82807;BME280;72563;44.816;20.484;2023-11-22T09:07:35;100398.94;;;9.82;82.33
82807;BME280;72563;44.816;20.484;2023-11-22T09:10:02;100410.69;;;9.74;81.98
82807;BME280;72563;44.816;20.484;2023-11-22T09:12:36;100401.84;;;9.77;81.29
82807;BME280;72563;44.816;20.484;2023-11-22T09:15:10;100400.66;;;9.91;81.34
82807;BME280;72563;44.816;20.484;2023-11-22T09:17:37;100407.00;;;10.00;80.58
82807;BME280;72563;44.816;20.484;2023-11-22T09:20:18;100395.19;;;10.00;79.97
82807;BME280;72563;44.816;20.484;2023-11-22T09:22:50;100408.28;;;10.17;80.29
82807;BME280;72563;44.816;20.484;2023-11-22T09:25:26;100418.41;;;10.08;80.41
82807;BME280;72563;44.816;20.484;2023-11-22T09:27:56;100416.16;;;10.10;79.20
82807;BME280;72563;44.816;20.484;2023-11-22T09:30:29;100418.75;;;9.92;80.78
82807;BME280;72563;44.816;20.484;2023-11-22T09:33:01;100391.50;;;9.60;81.84
82807;BME280;72563;44.816;20.484;2023-11-22T09:35:27;100418.19;;;9.82;81.41
82807;BME280;72563;44.816;20.484;2023-11-22T09:38:02;100420.25;;;9.98;80.83
82807;BME280;72563;44.816;20.484;2023-11-22T09:40:29;100420.91;;;9.95;81.48
82807;BME280;72563;44.816;20.484;2023-11-22T09:43:00;100401.44;;;9.92;80.56
82807;BME280;72563;44.816;20.484;2023-11-22T09:45:28;100403.41;;;9.91;80.78
82807;BME280;72563;44.816;20.484;2023-11-22T09:47:55;100423.75;;;9.90;81.54
82807;BME280;72563;44.816;20.484;2023-11-22T09:50:39;100416.34;;;9.91;81.18
82807;BME280;72563;44.816;20.484;2023-11-22T09:53:19;100422.44;;;9.88;80.95
82807;BME280;72563;44.816;20.484;2023-11-22T09:55:47;100427.06;;;9.79;81.79
82807;BME280;72563;44.816;20.484;2023-11-22T09:58:13;100426.63;;;9.85;82.00
82807;BME280;72563;44.816;20.484;2023-11-22T10:00:47;100403.25;;;9.74;81.40
82807;BME280;72563;44.816;20.484;2023-11-22T10:03:13;100432.59;;;10.01;81.36
82807;BME280;72563;44.816;20.484;2023-11-22T10:05:42;100430.91;;;9.91;81.14
82807;BME280;72563;44.816;20.484;2023-11-22T10:08:08;100424.00;;;9.80;81.60
82807;BME280;72563;44.816;20.484;2023-11-22T10:10:36;100439.16;;;9.91;82.12
82807;BME280;72563;44.816;20.484;2023-11-22T10:13:02;100427.25;;;9.82;82.15
82807;BME280;72563;44.816;20.484;2023-11-22T10:15:29;100437.03;;;10.11;80.71
82807;BME280;72563;44.816;20.484;2023-11-22T10:17:56;100444.19;;;9.98;81.57
82807;BME280;72563;44.816;20.484;2023-11-22T10:20:24;100427.34;;;9.91;81.27
82807;BME280;72563;44.816;20.484;2023-11-22T10:22:51;100436.75;;;9.98;81.11
82807;BME280;72563;44.816;20.484;2023-11-22T10:25:17;100441.59;;;10.15;81.24
82807;BME280;72563;44.816;20.484;2023-11-22T10:27:45;100444.09;;;10.25;80.51
82807;BME280;72563;44.816;20.484;2023-11-22T10:30:11;100447.13;;;10.15;81.15
82807;BME280;72563;44.816;20.484;2023-11-22T10:32:39;100436.81;;;9.85;81.60
82807;BME280;72563;44.816;20.484;2023-11-22T10:35:06;100457.66;;;9.99;81.53
82807;BME280;72563;44.816;20.484;2023-11-22T10:37:33;100470.00;;;9.88;81.97
82807;BME280;72563;44.816;20.484;2023-11-22T10:39:59;100468.81;;;9.81;82.27
82807;BME280;72563;44.816;20.484;2023-11-22T10:42:26;100484.47;;;9.80;82.74
82807;BME280;72563;44.816;20.484;2023-11-22T10:44:56;100479.94;;;10.12;81.09
82807;BME280;72563;44.816;20.484;2023-11-22T10:47:23;100472.66;;;9.93;81.91
82807;BME280;72563;44.816;20.484;2023-11-22T10:49:51;100485.44;;;9.98;82.50
82807;BME280;72563;44.816;20.484;2023-11-22T10:52:18;100489.31;;;9.97;82.39
82807;BME280;72563;44.816;20.484;2023-11-22T10:54:55;100497.81;;;9.87;82.62
82807;BME280;72563;44.816;20.484;2023-11-22T10:57:26;100504.25;;;10.04;81.75
82807;BME280;72563;44.816;20.484;2023-11-22T10:59:53;100502.34;;;10.05;81.90
82807;BME280;72563;44.816;20.484;2023-11-22T11:02:21;100493.06;;;10.15;81.57
82807;BME280;72563;44.816;20.484;2023-11-22T11:05:02;100505.38;;;10.17;81.93
82807;BME280;72563;44.816;20.484;2023-11-22T11:07:36;100514.75;;;10.02;82.25
82807;BME280;72563;44.816;20.484;2023-11-22T11:10:03;100510.91;;;10.03;82.09
82807;BME280;72563;44.816;20.484;2023-11-22T11:12:29;100511.38;;;10.19;81.64
82807;BME280;72563;44.816;20.484;2023-11-22T11:14:54;100518.19;;;10.22;81.58
82807;BME280;72563;44.816;20.484;2023-11-22T11:17:20;100517.63;;;10.11;82.00
82807;BME280;72563;44.816;20.484;2023-11-22T11:19:47;100512.19;;;10.20;82.33
82807;BME280;72563;44.816;20.484;2023-11-22T11:22:15;100519.63;;;10.19;81.88
82807;BME280;72563;44.816;20.484;2023-11-22T11:24:41;100471.41;;;9.99;81.91
82807;BME280;72563;44.816;20.484;2023-11-22T11:27:10;100519.31;;;10.21;82.33
82807;BME280;72563;44.816;20.484;2023-11-22T11:29:36;100519.31;;;10.21;82.15
82807;BME280;72563;44.816;20.484;2023-11-22T11:32:10;100518.78;;;10.32;81.41
82807;BME280;72563;44.816;20.484;2023-11-22T11:34:48;100520.56;;;10.37;81.24
82807;BME280;72563;44.816;20.484;2023-11-22T11:37:20;100527.78;;;10.46;81.30
82807;BME280;72563;44.816;20.484;2023-11-22T11:39:46;100530.97;;;10.40;81.54
82807;BME280;72563;44.816;20.484;2023-11-22T11:42:13;100528.22;;;10.40;81.40
82807;BME280;72563;44.816;20.484;2023-11-22T11:47:22;100533.66;;;10.53;81.45
82807;BME280;72563;44.816;20.484;2023-11-22T11:49:49;100530.78;;;10.36;81.54
82807;BME280;72563;44.816;20.484;2023-11-22T11:52:17;100530.53;;;10.46;81.61
82807;BME280;72563;44.816;20.484;2023-11-22T11:54:43;100536.53;;;10.48;80.88
82807;BME280;72563;44.816;20.484;2023-11-22T11:57:10;100531.53;;;10.50;80.82
82807;BME280;72563;44.816;20.484;2023-11-22T11:59:35;100521.06;;;10.39;81.37
82807;BME280;72563;44.816;20.484;2023-11-22T12:02:01;100531.16;;;10.43;82.01
82807;BME280;72563;44.816;20.484;2023-11-22T12:04:27;100530.28;;;10.56;80.72
82807;BME280;72563;44.816;20.484;2023-11-22T12:06:55;100548.78;;;10.42;81.36
82807;BME280;72563;44.816;20.484;2023-11-22T12:09:25;100546.03;;;10.42;82.08
82807;BME280;72563;44.816;20.484;2023-11-22T12:11:51;100544.66;;;10.31;82.19
82807;BME280;72563;44.816;20.484;2023-11-22T12:14:19;100555.34;;;10.55;81.40
82807;BME280;72563;44.816;20.484;2023-11-22T12:16:45;100561.09;;;10.45;82.01
82807;BME280;72563;44.816;20.484;2023-11-22T12:19:28;100560.06;;;10.54;81.30
82807;BME280;72563;44.816;20.484;2023-11-22T12:21:56;100551.22;;;10.44;81.22
82807;BME280;72563;44.816;20.484;2023-11-22T12:24:23;100567.84;;;10.39;81.31
82807;BME280;72563;44.816;20.484;2023-11-22T12:26:50;100563.91;;;10.31;81.87
82807;BME280;72563;44.816;20.484;2023-11-22T12:29:16;100574.81;;;10.36;81.34
82807;BME280;72563;44.816;20.484;2023-11-22T12:31:49;100572.97;;;10.32;81.59
82807;BME280;72563;44.816;20.484;2023-11-22T12:34:22;100586.09;;;10.35;81.67
82807;BME280;72563;44.816;20.484;2023-11-22T12:36:48;100579.09;;;10.29;81.18
82807;BME280;72563;44.816;20.484;2023-11-22T12:39:14;100594.25;;;10.40;81.06
82807;BME280;72563;44.816;20.484;2023-11-22T12:41:50;100588.56;;;10.36;81.32
82807;BME280;72563;44.816;20.484;2023-11-22T12:44:17;100578.59;;;10.49;80.87
82807;BME280;72563;44.816;20.484;2023-11-22T12:46:53;100591.75;;;10.30;81.58